Adrian, Minnesota
Current Conditions -  °F | °C
As of 8:34 PM on Tuesday 21 Oct 2014 (Local Time) from KLYV Reporting Station
Clear Clear  
Wind Chill: 61°   Ceiling: Unl
Heat Index: 61°   Visibility: 10mi
Dew Point: 41°   Wind: 12mph
Humidity: 48%   Direction: 150°SSE
Pressure: 30.03"   Gusts: NA
Location:  43.63°N, 95.93°W
Report Text: KLYV 220134Z AUTO 15010KT 10SM CLR 16/05 A3003 RMK AO2
Loading
Personal Weather Stations






























Interactive Weather Map
Tropical Storm Tracking
New forecast layout! Learn more

10-Day Weather Forecast

Advertisements
Track Severe Weather on mobile